Airport View

Enter AWOS ICAO identifier for current METAR.

ex. KFNL

KAXA 192345Z AUTO 00000KT 6SM BR BKN019 OVC055 01/00 A3020 RMK A01

19 Oct 2020 23:47

Frequency: 118.475

Phone: 515-295-9634

Other Area AWOS: KEST - KFXY - KCAV - KFOD

TAF KFOD 191743Z 1918/2018 13007KT P6SM -SN BKN025 TEMPO 1918/1920 3SM -SN BR BKN011 FM192000 12005KT P6SM OVC030 FM192200 11004KT P6SM BKN045 FM201700 13011G19KT P6SM OVC020